createdAt,value
2023-05-21T00:01:08.276Z,12.26
2023-05-21T00:03:36.558Z,12.38
2023-05-21T00:06:04.250Z,12.42
2023-05-21T00:08:31.307Z,12.33
2023-05-21T00:10:58.079Z,12.49
2023-05-21T00:13:24.902Z,12.46
2023-05-21T00:15:51.853Z,12.53
2023-05-21T00:18:18.651Z,12.57
2023-05-21T00:20:46.070Z,12.55
2023-05-21T00:23:12.895Z,12.63
2023-05-21T00:25:39.603Z,12.60
2023-05-21T00:28:06.550Z,12.65
2023-05-21T00:30:33.285Z,12.56
2023-05-21T00:33:02.861Z,12.57
2023-05-21T00:35:29.877Z,12.70
2023-05-21T00:37:56.511Z,12.71
2023-05-21T00:40:23.226Z,12.70
2023-05-21T00:42:50.159Z,12.73
2023-05-21T00:45:17.931Z,12.72
2023-05-21T00:47:45.482Z,12.75
2023-05-21T00:50:12.372Z,12.74
2023-05-21T00:52:42.353Z,12.74
2023-05-21T00:55:11.159Z,12.77
2023-05-21T00:57:39.455Z,12.80
2023-05-21T01:00:10.962Z,12.83
2023-05-21T01:02:38.410Z,12.80
2023-05-21T01:05:09.145Z,12.84
2023-05-21T01:07:39.106Z,12.75
2023-05-21T01:10:07.848Z,12.76
2023-05-21T01:12:35.896Z,12.72
2023-05-21T01:15:04.316Z,12.79
2023-05-21T01:17:32.187Z,12.62
2023-05-21T01:19:59.712Z,12.82
2023-05-21T01:22:29.376Z,12.83
2023-05-21T01:24:56.158Z,12.80
2023-05-21T01:27:23.326Z,12.81
2023-05-21T01:29:50.140Z,12.80
2023-05-21T01:32:32.036Z,12.80
2023-05-21T01:35:21.055Z,12.80
2023-05-21T01:37:58.263Z,12.81
2023-05-21T01:41:00.546Z,12.80
2023-05-21T01:43:31.763Z,12.78
2023-05-21T01:45:59.952Z,12.81
2023-05-21T01:48:29.113Z,12.75
2023-05-21T01:51:00.767Z,12.79
2023-05-21T01:53:27.714Z,12.59
2023-05-21T01:55:54.805Z,12.78
2023-05-21T01:58:23.125Z,12.78
2023-05-21T02:00:51.306Z,12.75
2023-05-21T02:03:19.797Z,12.70
2023-05-21T02:05:47.946Z,12.76
2023-05-21T02:08:15.553Z,12.72
2023-05-21T02:10:42.351Z,12.78
2023-05-21T02:13:09.391Z,12.77
2023-05-21T02:15:36.257Z,12.81
2023-05-21T02:18:03.623Z,12.69
2023-05-21T02:20:31.350Z,12.83
2023-05-21T02:22:58.105Z,12.81
2023-05-21T02:25:24.931Z,12.74
2023-05-21T02:27:54.182Z,12.69
2023-05-21T02:30:21.142Z,12.76
2023-05-21T02:32:49.028Z,12.80
2023-05-21T02:35:16.225Z,12.81
2023-05-21T02:37:44.478Z,12.78
2023-05-21T02:40:12.251Z,12.80
2023-05-21T02:42:40.538Z,12.72
2023-05-21T02:45:11.859Z,12.79
2023-05-21T02:47:39.748Z,12.80
2023-05-21T02:50:08.288Z,12.77
2023-05-21T02:52:35.116Z,12.78
2023-05-21T02:55:01.875Z,12.76
2023-05-21T02:57:28.724Z,12.76
2023-05-21T02:59:55.438Z,12.75
2023-05-21T03:02:22.316Z,12.74
2023-05-21T03:04:49.181Z,12.76
2023-05-21T03:07:19.291Z,12.74
2023-05-21T03:09:46.410Z,12.76
2023-05-21T03:12:13.340Z,12.78
2023-05-21T03:14:40.068Z,12.74
2023-05-21T03:17:08.053Z,12.78
2023-05-21T03:19:36.731Z,12.77
2023-05-21T03:22:04.747Z,12.78
2023-05-21T03:24:31.902Z,12.74
2023-05-21T03:27:01.743Z,12.80
2023-05-21T03:29:28.849Z,12.81
2023-05-21T03:31:55.968Z,12.81
2023-05-21T03:34:23.560Z,12.80
2023-05-21T03:36:51.210Z,12.76
2023-05-21T03:39:18.572Z,12.79
2023-05-21T03:41:46.744Z,12.80
2023-05-21T03:44:13.587Z,12.81
2023-05-21T03:46:40.412Z,12.80
2023-05-21T03:49:07.235Z,12.76
2023-05-21T03:51:33.924Z,12.82
2023-05-21T03:54:01.621Z,12.81
2023-05-21T03:56:28.866Z,12.78
2023-05-21T03:58:55.834Z,12.71
2023-05-21T04:01:22.584Z,12.74
2023-05-21T04:03:49.508Z,12.75
2023-05-21T04:06:17.185Z,12.75
2023-05-21T04:08:44.692Z,12.74
2023-05-21T04:11:11.525Z,12.79
2023-05-21T04:13:38.947Z,12.78
2023-05-21T04:16:09.179Z,12.75
2023-05-21T04:18:36.169Z,12.74
2023-05-21T04:21:02.840Z,12.81
2023-05-21T04:23:29.547Z,12.82
2023-05-21T04:25:58.691Z,12.83
2023-05-21T04:28:29.038Z,12.88
2023-05-21T04:30:56.696Z,12.95
2023-05-21T04:33:26.172Z,12.96
2023-05-21T04:35:53.081Z,13.08
2023-05-21T04:38:20.031Z,13.23
2023-05-21T04:40:54.738Z,13.49
2023-05-21T04:43:26.562Z,13.78
2023-05-21T04:45:57.223Z,13.91
2023-05-21T04:48:27.664Z,14.62
2023-05-21T04:50:56.113Z,15.10
2023-05-21T04:53:24.003Z,15.09
2023-05-21T04:55:50.861Z,15.28
2023-05-21T04:58:19.242Z,15.87
2023-05-21T05:00:47.412Z,16.12
2023-05-21T05:03:14.804Z,15.86
2023-05-21T05:05:42.126Z,15.30
2023-05-21T05:08:14.726Z,14.95
2023-05-21T05:10:43.188Z,14.79
2023-05-21T05:13:10.276Z,14.76
2023-05-21T05:15:37.558Z,15.21
2023-05-21T05:18:04.630Z,15.89
2023-05-21T05:20:33.850Z,16.31
2023-05-21T05:23:01.335Z,16.65
2023-05-21T05:25:28.014Z,17.03
2023-05-21T05:27:54.684Z,16.96
2023-05-21T05:30:21.531Z,17.32
2023-05-21T05:32:48.323Z,17.49
2023-05-21T05:35:15.243Z,17.76
2023-05-21T05:37:42.101Z,17.60
2023-05-21T05:40:09.263Z,17.51
2023-05-21T05:42:37.043Z,17.54
2023-05-21T05:45:04.028Z,17.81
2023-05-21T05:47:31.529Z,17.77
2023-05-21T05:49:58.463Z,17.82
2023-05-21T05:52:25.236Z,18.08
2023-05-21T05:54:51.950Z,18.23
2023-05-21T05:57:18.727Z,18.27
2023-05-21T05:59:45.636Z,18.50
2023-05-21T06:02:12.448Z,18.48
2023-05-21T06:04:39.813Z,18.48
2023-05-21T06:07:06.709Z,18.58
2023-05-21T06:09:33.381Z,18.54
2023-05-21T06:12:00.168Z,18.57
2023-05-21T06:14:27.024Z,18.43
2023-05-21T06:16:54.737Z,18.49
2023-05-21T06:19:23.187Z,18.38
2023-05-21T06:21:50.918Z,18.58
2023-05-21T06:24:17.677Z,18.95
2023-05-21T06:26:44.654Z,18.91
2023-05-21T06:29:14.793Z,19.05
2023-05-21T06:31:42.283Z,19.24
2023-05-21T06:34:14.368Z,19.23
2023-05-21T06:36:41.301Z,19.23
2023-05-21T06:39:08.252Z,19.19
2023-05-21T06:41:35.291Z,19.54
2023-05-21T06:44:03.748Z,19.52
2023-05-21T06:46:31.321Z,19.33
2023-05-21T06:48:59.260Z,19.42
2023-05-21T06:51:26.738Z,19.59
2023-05-21T06:53:53.563Z,19.58
2023-05-21T06:56:22.253Z,19.64
2023-05-21T06:58:48.931Z,19.54
2023-05-21T07:01:17.312Z,19.61
2023-05-21T07:03:45.741Z,19.67
2023-05-21T07:06:12.517Z,19.76
2023-05-21T07:08:39.200Z,19.90
2023-05-21T07:11:06.260Z,19.96
2023-05-21T07:13:35.722Z,20.06
2023-05-21T07:16:02.620Z,20.16
2023-05-21T07:18:29.874Z,20.26
2023-05-21T07:20:57.377Z,20.19
2023-05-21T07:23:24.369Z,20.22
2023-05-21T07:25:51.664Z,20.46
2023-05-21T07:28:21.726Z,20.47
2023-05-21T07:30:49.182Z,20.30
2023-05-21T07:33:24.348Z,20.23
2023-05-21T07:35:51.516Z,20.34
2023-05-21T07:38:18.261Z,20.47
2023-05-21T07:40:45.149Z,20.74
2023-05-21T07:43:15.096Z,20.97
2023-05-21T07:45:41.736Z,21.00
2023-05-21T07:48:10.367Z,20.77
2023-05-21T07:50:38.229Z,20.73
2023-05-21T07:53:05.241Z,20.76
2023-05-21T07:55:32.109Z,20.64
2023-05-21T07:58:00.530Z,20.44
2023-05-21T08:00:31.053Z,20.49
2023-05-21T08:02:58.348Z,20.37
2023-05-21T08:05:28.527Z,20.56
2023-05-21T08:07:57.682Z,20.65
2023-05-21T08:10:25.507Z,20.90
2023-05-21T08:12:52.740Z,21.06
2023-05-21T08:15:19.660Z,21.05
2023-05-21T08:17:46.405Z,20.86
2023-05-21T08:20:14.535Z,20.57
2023-05-21T08:22:45.913Z,20.45
2023-05-21T08:25:12.682Z,20.38
2023-05-21T08:27:39.491Z,20.46
2023-05-21T08:30:07.306Z,20.66
2023-05-21T08:32:34.128Z,20.56
2023-05-21T08:35:00.926Z,20.77
2023-05-21T08:37:27.768Z,20.80
2023-05-21T08:39:54.479Z,20.77
2023-05-21T08:42:42.683Z,20.66
2023-05-21T08:45:12.890Z,20.47
2023-05-21T08:47:42.496Z,20.53
2023-05-21T08:50:17.220Z,20.37
2023-05-21T08:52:44.066Z,20.47
2023-05-21T08:55:11.149Z,20.45
2023-05-21T08:57:43.166Z,20.39
2023-05-21T09:00:10.993Z,20.26
2023-05-21T09:02:40.974Z,20.27
2023-05-21T09:05:09.544Z,20.41
2023-05-21T09:08:14.496Z,20.33
2023-05-21T09:11:07.680Z,20.59
2023-05-21T09:13:39.174Z,20.72
2023-05-21T09:16:07.827Z,20.69
2023-05-21T09:18:35.161Z,20.47
2023-05-21T09:21:32.319Z,20.44
2023-05-21T09:24:03.136Z,20.32
2023-05-21T09:26:34.626Z,20.46
2023-05-21T09:29:05.156Z,20.44
2023-05-21T09:31:33.980Z,20.94
2023-05-21T09:34:01.648Z,20.73
2023-05-21T09:36:29.794Z,20.27
2023-05-21T09:39:00.472Z,20.43
2023-05-21T09:41:38.785Z,20.43
2023-05-21T09:44:06.367Z,20.43
2023-05-21T09:46:42.252Z,20.51
2023-05-21T09:49:26.752Z,20.66
2023-05-21T09:51:59.590Z,20.61
2023-05-21T09:54:31.573Z,20.68
2023-05-21T09:57:01.623Z,20.71
2023-05-21T09:59:39.399Z,20.68
2023-05-21T10:02:21.131Z,20.62
2023-05-21T10:04:56.946Z,20.77
2023-05-21T10:07:27.322Z,20.77
2023-05-21T10:09:58.651Z,20.84
2023-05-21T10:12:26.145Z,20.88
2023-05-21T10:15:21.023Z,20.80
2023-05-21T10:17:49.566Z,20.83
2023-05-21T10:20:17.602Z,20.76
2023-05-21T10:22:44.854Z,20.66
2023-05-21T10:25:13.503Z,20.54
2023-05-21T10:27:41.269Z,20.62
2023-05-21T10:30:08.846Z,20.68
2023-05-21T10:32:35.903Z,20.81
2023-05-21T10:35:02.926Z,20.87
2023-05-21T10:37:29.802Z,20.76
2023-05-21T10:39:57.268Z,20.64
2023-05-21T10:42:24.055Z,20.77
2023-05-21T10:45:21.914Z,20.85
2023-05-21T10:48:19.351Z,20.99
2023-05-21T10:51:05.086Z,20.87
2023-05-21T10:54:03.028Z,20.77
2023-05-21T10:56:39.192Z,20.66
2023-05-21T10:59:32.226Z,20.59
2023-05-21T11:01:59.780Z,20.59
2023-05-21T11:04:27.864Z,20.56
2023-05-21T11:06:54.905Z,20.57
2023-05-21T11:09:21.853Z,20.69
2023-05-21T11:11:54.075Z,20.84
2023-05-21T11:14:31.891Z,20.93
2023-05-21T11:17:07.596Z,20.79
2023-05-21T11:19:39.304Z,20.79
2023-05-21T11:22:26.555Z,20.83
2023-05-21T11:24:55.226Z,20.60
2023-05-21T11:27:33.958Z,20.66
2023-05-21T11:30:08.285Z,20.71
2023-05-21T11:32:39.916Z,20.92
2023-05-21T11:35:08.301Z,20.85
2023-05-21T11:37:36.076Z,20.85
2023-05-21T11:40:18.936Z,20.91
2023-05-21T11:42:50.078Z,21.00
2023-05-21T11:45:25.364Z,21.06
2023-05-21T11:47:58.787Z,21.06
2023-05-21T11:50:33.398Z,21.07
2023-05-21T11:53:00.857Z,20.99
2023-05-21T11:55:28.560Z,20.95
2023-05-21T11:57:55.771Z,20.79
2023-05-21T12:00:23.397Z,20.97
2023-05-21T12:02:54.422Z,21.10
2023-05-21T12:05:21.854Z,20.97
2023-05-21T12:07:50.399Z,20.91
2023-05-21T12:10:24.355Z,20.93
2023-05-21T12:12:57.650Z,20.78
2023-05-21T12:15:26.400Z,20.81
2023-05-21T12:17:54.474Z,20.84
2023-05-21T12:20:27.022Z,20.89
2023-05-21T12:22:54.532Z,20.87
2023-05-21T12:25:25.961Z,20.85
2023-05-21T12:27:58.002Z,20.78
2023-05-21T12:30:26.299Z,20.87
2023-05-21T12:32:53.179Z,20.82
2023-05-21T12:35:24.275Z,20.77
2023-05-21T12:37:51.763Z,20.97
2023-05-21T12:40:19.156Z,20.97
2023-05-21T12:42:46.033Z,20.99
2023-05-21T12:45:13.326Z,20.88
2023-05-21T12:47:40.189Z,20.83
2023-05-21T12:50:14.196Z,20.78
2023-05-21T12:52:43.243Z,20.79
2023-05-21T12:55:13.638Z,20.80
2023-05-21T12:57:40.414Z,20.87
2023-05-21T13:00:08.163Z,20.89
2023-05-21T13:02:39.815Z,20.90
2023-05-21T13:05:08.801Z,20.34
2023-05-21T13:07:38.746Z,20.84
2023-05-21T13:10:06.460Z,20.80
2023-05-21T13:12:34.320Z,20.72
2023-05-21T13:15:03.312Z,20.65
2023-05-21T13:17:30.841Z,20.44
2023-05-21T13:20:20.884Z,20.46
2023-05-21T13:22:49.612Z,20.51
2023-05-21T13:25:21.856Z,20.59
2023-05-21T13:27:49.820Z,20.67
2023-05-21T13:30:17.168Z,20.76
2023-05-21T13:32:44.630Z,20.80
2023-05-21T13:35:12.405Z,20.74
2023-05-21T13:37:41.587Z,20.62
2023-05-21T13:40:14.760Z,20.64
2023-05-21T13:42:42.064Z,20.63
2023-05-21T13:45:11.607Z,20.56
2023-05-21T13:47:40.883Z,20.62
2023-05-21T13:50:09.084Z,20.64
2023-05-21T13:52:36.494Z,20.60
2023-05-21T13:55:03.568Z,20.69
2023-05-21T13:57:31.263Z,20.66
2023-05-21T13:59:59.076Z,20.64
2023-05-21T14:02:26.196Z,20.55
2023-05-21T14:04:53.230Z,20.61
2023-05-21T14:07:19.992Z,20.60
2023-05-21T14:09:47.823Z,20.62
2023-05-21T14:12:16.007Z,20.71
2023-05-21T14:14:43.625Z,20.67
2023-05-21T14:17:10.548Z,20.50
2023-05-21T14:19:39.022Z,20.39
2023-05-21T14:22:09.282Z,20.31
2023-05-21T14:24:37.936Z,20.40
2023-05-21T14:27:04.994Z,20.54
2023-05-21T14:29:32.000Z,20.53
2023-05-21T14:31:58.906Z,20.54
2023-05-21T14:34:25.800Z,20.53
2023-05-21T14:36:55.590Z,20.49
2023-05-21T14:39:23.408Z,20.50
2023-05-21T14:41:50.497Z,20.62
2023-05-21T14:44:21.132Z,20.52
2023-05-21T14:46:48.961Z,20.57
2023-05-21T14:49:15.856Z,20.31
2023-05-21T14:51:44.053Z,20.49
2023-05-21T14:54:11.636Z,20.31
2023-05-21T14:56:39.865Z,20.32
2023-05-21T14:59:07.028Z,20.26
2023-05-21T15:01:34.153Z,20.39
2023-05-21T15:04:05.467Z,20.43
2023-05-21T15:06:32.484Z,20.39
2023-05-21T15:09:00.530Z,20.40
2023-05-21T15:11:31.750Z,20.38
2023-05-21T15:13:58.641Z,20.40
2023-05-21T15:16:25.723Z,20.45
2023-05-21T15:18:52.535Z,20.43
2023-05-21T15:21:19.635Z,20.30
2023-05-21T15:23:46.368Z,20.24
2023-05-21T15:26:13.124Z,20.19
2023-05-21T15:28:39.863Z,20.29
2023-05-21T15:31:06.614Z,20.31
2023-05-21T15:33:33.371Z,20.25
2023-05-21T15:36:00.279Z,20.28
2023-05-21T15:38:27.051Z,20.19
2023-05-21T15:40:54.367Z,20.33
2023-05-21T15:43:21.378Z,20.34
2023-05-21T15:45:48.141Z,20.35
2023-05-21T15:48:14.946Z,20.38
2023-05-21T15:50:42.555Z,20.26
2023-05-21T15:53:11.072Z,20.16
2023-05-21T15:55:38.841Z,20.24
2023-05-21T15:58:06.266Z,20.14
2023-05-21T16:00:34.140Z,20.27
2023-05-21T16:03:02.533Z,20.14
2023-05-21T16:05:29.389Z,20.09
2023-05-21T16:07:56.141Z,20.04
2023-05-21T16:10:23.314Z,20.09
2023-05-21T16:12:50.042Z,20.05
2023-05-21T16:15:16.873Z,20.02
2023-05-21T16:17:43.743Z,19.92
2023-05-21T16:20:11.255Z,20.00
2023-05-21T16:22:38.016Z,19.95
2023-05-21T16:25:05.153Z,19.96
2023-05-21T16:27:32.016Z,19.92
2023-05-21T16:29:58.763Z,19.93
2023-05-21T16:32:25.736Z,19.94
2023-05-21T16:34:56.974Z,19.85
2023-05-21T16:37:23.903Z,19.76
2023-05-21T16:39:50.824Z,19.73
2023-05-21T16:42:17.590Z,19.74
2023-05-21T16:44:45.341Z,19.67
2023-05-21T16:47:12.428Z,19.59
2023-05-21T16:49:39.212Z,19.54
2023-05-21T16:52:07.494Z,19.50
2023-05-21T16:54:36.273Z,19.25
2023-05-21T16:57:06.220Z,19.33
2023-05-21T16:59:33.390Z,19.32
2023-05-21T17:02:00.535Z,19.18
2023-05-21T17:04:32.741Z,19.19
2023-05-21T17:06:59.624Z,19.11
2023-05-21T17:09:27.813Z,19.00
2023-05-21T17:11:58.662Z,19.08
2023-05-21T17:14:33.854Z,18.84
2023-05-21T17:17:01.972Z,18.96
2023-05-21T17:19:28.822Z,18.95
2023-05-21T17:21:56.395Z,18.81
2023-05-21T17:24:27.444Z,18.82
2023-05-21T17:26:55.364Z,18.75
2023-05-21T17:29:23.486Z,18.57
2023-05-21T17:31:50.277Z,18.40
2023-05-21T17:34:18.375Z,18.53
2023-05-21T17:36:45.358Z,18.43
2023-05-21T17:39:12.049Z,18.36
2023-05-21T17:41:39.490Z,18.32
2023-05-21T17:44:06.255Z,18.25
2023-05-21T17:46:33.079Z,18.18
2023-05-21T17:49:00.806Z,18.13
2023-05-21T17:51:27.606Z,18.07
2023-05-21T17:53:54.402Z,17.94
2023-05-21T17:56:21.833Z,17.94
2023-05-21T17:58:50.389Z,17.77
2023-05-21T18:01:17.249Z,17.73
2023-05-21T18:03:44.046Z,17.60
2023-05-21T18:06:13.171Z,17.67
2023-05-21T18:08:39.829Z,17.48
2023-05-21T18:11:06.693Z,17.50
2023-05-21T18:13:33.469Z,17.45
2023-05-21T18:16:00.391Z,17.36
2023-05-21T18:18:27.193Z,17.29
2023-05-21T18:20:54.282Z,17.13
2023-05-21T18:23:21.289Z,17.00
2023-05-21T18:25:54.161Z,16.91
2023-05-21T18:28:20.964Z,16.86
2023-05-21T18:30:47.769Z,16.86
2023-05-21T18:33:15.584Z,16.77
2023-05-21T18:35:44.486Z,16.73
2023-05-21T18:38:11.650Z,16.57
2023-05-21T18:40:38.770Z,16.58
2023-05-21T18:43:06.613Z,16.44
2023-05-21T18:45:33.782Z,16.38
2023-05-21T18:48:00.671Z,16.38
2023-05-21T18:50:27.737Z,16.32
2023-05-21T18:52:56.281Z,16.31
2023-05-21T18:55:23.443Z,16.24
2023-05-21T18:57:51.838Z,16.11
2023-05-21T19:00:18.838Z,16.11
2023-05-21T19:02:50.732Z,16.01
2023-05-21T19:05:17.910Z,15.89
2023-05-21T19:07:44.760Z,15.90
2023-05-21T19:10:12.709Z,15.74
2023-05-21T19:12:41.078Z,15.85
2023-05-21T19:15:08.484Z,15.76
2023-05-21T19:17:36.587Z,15.70
2023-05-21T19:20:05.619Z,15.69
2023-05-21T19:22:32.545Z,15.60
2023-05-21T19:24:59.625Z,15.54
2023-05-21T19:27:29.205Z,15.53
2023-05-21T19:29:56.206Z,15.42
2023-05-21T19:32:26.197Z,15.44
2023-05-21T19:34:52.934Z,15.39
2023-05-21T19:37:20.092Z,15.29
2023-05-21T19:39:50.320Z,15.23
2023-05-21T19:42:17.912Z,15.19
2023-05-21T19:44:45.253Z,15.13
2023-05-21T19:47:15.041Z,15.09
2023-05-21T19:49:46.818Z,15.07
2023-05-21T19:52:14.546Z,15.09
2023-05-21T19:54:44.783Z,14.84
2023-05-21T19:57:13.478Z,14.97
2023-05-21T19:59:43.919Z,14.99
2023-05-21T20:02:17.769Z,14.85
2023-05-21T20:04:45.620Z,14.83
2023-05-21T20:07:13.809Z,14.96
2023-05-21T20:09:41.119Z,14.81
2023-05-21T20:12:09.932Z,14.83
2023-05-21T20:14:36.772Z,14.67
2023-05-21T20:17:05.831Z,14.75
2023-05-21T20:19:33.107Z,14.69
2023-05-21T20:22:02.901Z,14.64
2023-05-21T20:24:29.912Z,14.60
2023-05-21T20:26:57.659Z,14.51
2023-05-21T20:29:25.375Z,14.48
2023-05-21T20:31:52.516Z,14.42
2023-05-21T20:34:20.857Z,14.41
2023-05-21T20:36:47.771Z,14.36
2023-05-21T20:39:18.104Z,14.22
2023-05-21T20:41:47.124Z,14.22
2023-05-21T20:44:20.091Z,14.21
2023-05-21T20:46:48.564Z,14.21
2023-05-21T20:49:15.495Z,14.08
2023-05-21T20:51:42.572Z,14.19
2023-05-21T20:54:11.247Z,14.07
2023-05-21T20:56:42.921Z,14.11
2023-05-21T20:59:17.836Z,14.02
2023-05-21T21:01:45.788Z,13.67
2023-05-21T21:04:15.455Z,13.91
2023-05-21T21:06:42.188Z,13.54
2023-05-21T21:09:09.041Z,13.78
2023-05-21T21:11:35.855Z,13.74
2023-05-21T21:14:02.925Z,13.79
2023-05-21T21:16:30.937Z,13.77
2023-05-21T21:18:57.902Z,13.73
2023-05-21T21:21:24.970Z,13.54
2023-05-21T21:23:51.710Z,13.69
2023-05-21T21:26:19.481Z,13.61
2023-05-21T21:28:46.732Z,13.51
2023-05-21T21:31:13.758Z,13.52
2023-05-21T21:33:40.531Z,13.41
2023-05-21T21:36:08.098Z,13.43
2023-05-21T21:38:34.957Z,13.50
2023-05-21T21:41:01.722Z,13.53
2023-05-21T21:43:28.443Z,13.43
2023-05-21T21:45:55.380Z,13.36
2023-05-21T21:48:22.257Z,13.41
2023-05-21T21:50:48.964Z,13.34
2023-05-21T21:53:15.822Z,13.34
2023-05-21T21:55:42.541Z,13.33
2023-05-21T21:58:09.298Z,13.26
2023-05-21T22:00:37.434Z,13.27
2023-05-21T22:03:04.541Z,13.12
2023-05-21T22:05:32.781Z,13.16
2023-05-21T22:07:59.721Z,13.05
2023-05-21T22:10:26.417Z,13.12
2023-05-21T22:12:53.119Z,13.06
2023-05-21T22:15:29.013Z,12.97
2023-05-21T22:17:55.976Z,12.88
2023-05-21T22:20:23.018Z,12.92
2023-05-21T22:22:49.939Z,12.94
2023-05-21T22:25:16.712Z,13.02
2023-05-21T22:27:44.073Z,12.92
2023-05-21T22:30:12.907Z,12.92
2023-05-21T22:32:39.854Z,12.97
2023-05-21T22:35:07.252Z,12.90
2023-05-21T22:37:34.422Z,12.94
2023-05-21T22:40:01.206Z,12.92
2023-05-21T22:42:28.000Z,12.95
2023-05-21T22:44:55.467Z,12.92
2023-05-21T22:47:24.013Z,12.90
2023-05-21T22:49:53.634Z,12.88
2023-05-21T22:52:23.791Z,12.90
2023-05-21T22:54:52.718Z,12.90
2023-05-21T22:57:19.870Z,12.84
2023-05-21T22:59:46.620Z,12.84
2023-05-21T23:02:13.769Z,12.71
2023-05-21T23:04:44.357Z,12.79
2023-05-21T23:07:11.963Z,12.80
2023-05-21T23:09:38.708Z,12.81
2023-05-21T23:12:06.158Z,12.78
2023-05-21T23:14:32.903Z,12.71
2023-05-21T23:17:02.412Z,12.72
2023-05-21T23:19:29.773Z,12.63
2023-05-21T23:21:56.731Z,12.61
2023-05-21T23:24:23.632Z,12.58
2023-05-21T23:26:53.193Z,12.54
2023-05-21T23:29:23.329Z,12.36
2023-05-21T23:31:50.169Z,12.43
2023-05-21T23:34:16.925Z,12.37
2023-05-21T23:36:43.617Z,12.40
2023-05-21T23:39:10.326Z,12.37
2023-05-21T23:41:37.564Z,12.36
2023-05-21T23:44:04.450Z,12.30
2023-05-21T23:46:31.309Z,12.25
2023-05-21T23:48:58.071Z,12.22
2023-05-21T23:51:25.038Z,12.19
2023-05-21T23:53:51.766Z,12.10
2023-05-21T23:56:18.462Z,12.06
2023-05-21T23:58:45.292Z,12.03
